KVOK/VOK METAR and TAF weather

Enter ICAO airport designator
Station Type Date Time Source
KVOK METAR 2021/04/13 07:56 UTC NOAA

KVOK 130756Z AUTO 26009KT 10SM BKN030 BKN055 OVC070 06/03 A2991 RMK AO2 SLP136 T00620025


Station Type Date Time Source
KVOK Decoded METAR 2021/04/13 07:56 UTC NOAA

Volk / Camp Douglas, WI, United States (KVOK) 43-56N 090-16W
Apr 13, 2021 - 03:56 AM EDT / 2021.04.13 0756 UTC
Wind: from the W (260 degrees) at 10 MPH (9 KT):0
Visibility: 10 mile(s):0
Sky conditions: overcast
Temperature: 43.2 F (6.2 C)
Dew Point: 36.5 F (2.5 C)
Relative Humidity: 77%
Pressure (altimeter): 29.91 in. Hg (1012 hPa)
ob: KVOK 130756Z AUTO 26009KT 10SM BKN030 BKN055 OVC070 06/03 A2991 RMK AO2 SLP136 T00620025
cycle: 8

Station Type Date Time Source
KVOK TAF 2021/04/13 01:07 UTC NOAA

TAF KVOK 130100Z 1301/1407 27009KT 9999 SCT040 BKN065 620654 QNH2984INS
BECMG 1307/1308 25009KT 9999 SCT020 OVC040 620505 QNH2993INS
BECMG 1315/1316 27015G25KT 9999 BKN030 620502 QNH2999INS
BECMG 1322/1323 30009KT 9999 BKN025 620309 QNH3005INS TX08/1303Z TN04/1308Z LAST NO
AMDS AFT 1303 NEXT 1309

Example: see airport list